createdAt,value
2023-02-12T00:01:47.305Z,7.20
2023-02-12T00:04:35.268Z,7.21
2023-02-12T00:07:28.955Z,7.18
2023-02-12T00:10:15.289Z,7.16
2023-02-12T00:13:03.266Z,7.16
2023-02-12T00:15:49.557Z,7.17
2023-02-12T00:18:37.630Z,7.15
2023-02-12T00:21:28.336Z,7.14
2023-02-12T00:24:16.785Z,7.15
2023-02-12T00:27:02.983Z,7.13
2023-02-12T00:29:49.324Z,7.14
2023-02-12T00:32:37.295Z,7.14
2023-02-12T00:35:23.146Z,7.14
2023-02-12T00:38:11.631Z,7.11
2023-02-12T00:40:58.105Z,7.10
2023-02-12T00:43:52.715Z,7.09
2023-02-12T00:46:47.544Z,7.08
2023-02-12T00:49:44.175Z,7.08
2023-02-12T00:52:32.060Z,7.07
2023-02-12T00:55:19.621Z,7.05
2023-02-12T00:58:11.153Z,7.07
2023-02-12T01:00:57.663Z,7.05
2023-02-12T01:03:43.356Z,7.02
2023-02-12T01:06:29.486Z,7.03
2023-02-12T01:09:15.602Z,7.02
2023-02-12T01:12:02.707Z,7.01
2023-02-12T01:14:48.507Z,6.96
2023-02-12T01:17:34.231Z,6.95
2023-02-12T01:20:20.921Z,6.98
2023-02-12T01:23:08.424Z,6.98
2023-02-12T01:25:54.963Z,6.96
2023-02-12T01:28:43.397Z,6.98
2023-02-12T01:31:30.287Z,6.97
2023-02-12T01:34:16.395Z,6.94
2023-02-12T01:37:02.638Z,6.95
2023-02-12T01:39:48.295Z,6.95
2023-02-12T01:42:35.301Z,6.94
2023-02-12T01:45:36.209Z,6.93
2023-02-12T01:48:24.628Z,6.91
2023-02-12T01:51:11.338Z,6.90
2023-02-12T01:53:57.456Z,6.92
2023-02-12T01:56:43.125Z,6.91
2023-02-12T01:59:28.889Z,6.89
2023-02-12T02:02:14.910Z,6.91
2023-02-12T02:05:02.841Z,6.90
2023-02-12T02:07:49.267Z,6.88
2023-02-12T02:10:35.196Z,6.88
2023-02-12T02:13:38.715Z,6.92
2023-02-12T02:16:26.131Z,6.92
2023-02-12T02:19:13.492Z,6.93
2023-02-12T02:22:04.714Z,6.91
2023-02-12T02:25:04.653Z,6.88
2023-02-12T02:27:52.073Z,6.87
2023-02-12T02:30:45.094Z,6.88
2023-02-12T02:33:35.087Z,6.87
2023-02-12T02:36:26.115Z,6.86
2023-02-12T02:39:14.875Z,6.85
2023-02-12T02:42:01.116Z,6.84
2023-02-12T02:44:48.004Z,6.80
2023-02-12T02:47:37.653Z,6.78
2023-02-12T02:50:24.567Z,6.82
2023-02-12T02:53:11.365Z,6.77
2023-02-12T02:55:57.930Z,6.79
2023-02-12T02:58:44.460Z,6.77
2023-02-12T03:01:31.537Z,6.76
2023-02-12T03:04:19.367Z,6.74
2023-02-12T03:07:05.987Z,6.76
2023-02-12T03:09:52.860Z,6.74
2023-02-12T03:12:40.071Z,6.71
2023-02-12T03:15:27.534Z,6.72
2023-02-12T03:18:14.134Z,6.70
2023-02-12T03:21:03.509Z,6.69
2023-02-12T03:23:51.173Z,6.70
2023-02-12T03:26:39.446Z,6.65
2023-02-12T03:29:25.200Z,6.66
2023-02-12T03:32:14.745Z,6.63
2023-02-12T03:35:03.711Z,6.64
2023-02-12T03:37:52.414Z,6.65
2023-02-12T03:40:39.326Z,6.64
2023-02-12T03:43:25.797Z,6.64
2023-02-12T03:46:14.013Z,6.61
2023-02-12T03:49:00.748Z,6.61
2023-02-12T03:51:46.905Z,6.61
2023-02-12T03:54:34.169Z,6.59
2023-02-12T03:57:20.964Z,6.57
2023-02-12T04:00:07.945Z,6.56
2023-02-12T04:03:00.246Z,6.56
2023-02-12T04:05:46.405Z,6.55
2023-02-12T04:08:32.434Z,6.51
2023-02-12T04:11:21.884Z,6.50
2023-02-12T04:14:11.220Z,6.50
2023-02-12T04:16:59.359Z,6.53
2023-02-12T04:19:48.285Z,6.50
2023-02-12T04:22:37.929Z,6.52
2023-02-12T04:25:28.608Z,6.49
2023-02-12T04:28:17.889Z,6.47
2023-02-12T04:31:04.406Z,6.47
2023-02-12T04:33:52.087Z,6.49
2023-02-12T04:36:39.365Z,6.48
2023-02-12T04:39:26.638Z,6.44
2023-02-12T04:42:12.578Z,6.45
2023-02-12T04:44:59.807Z,6.44
2023-02-12T04:47:45.940Z,6.45
2023-02-12T04:50:40.686Z,6.43
2023-02-12T04:53:26.828Z,6.43
2023-02-12T04:56:13.027Z,6.43
2023-02-12T04:58:59.586Z,6.43
2023-02-12T05:01:46.782Z,6.41
2023-02-12T05:04:33.092Z,6.41
2023-02-12T05:07:18.741Z,6.39
2023-02-12T05:10:04.695Z,6.40
2023-02-12T05:12:52.454Z,6.37
2023-02-12T05:15:39.447Z,6.40
2023-02-12T05:18:26.693Z,6.41
2023-02-12T05:21:12.907Z,6.39
2023-02-12T05:23:59.038Z,6.37
2023-02-12T05:26:44.910Z,6.38
2023-02-12T05:29:30.886Z,6.38
2023-02-12T05:32:16.663Z,6.35
2023-02-12T05:35:03.780Z,6.35
2023-02-12T05:37:49.852Z,6.33
2023-02-12T05:40:36.207Z,6.35
2023-02-12T05:43:22.081Z,6.35
2023-02-12T05:46:08.077Z,6.33
2023-02-12T05:48:53.841Z,6.34
2023-02-12T05:51:40.965Z,6.32
2023-02-12T05:54:26.749Z,6.31
2023-02-12T05:57:12.444Z,6.33
2023-02-12T05:59:58.248Z,6.33
2023-02-12T06:02:43.939Z,6.33
2023-02-12T06:05:29.661Z,6.34
2023-02-12T06:08:16.722Z,6.36
2023-02-12T06:11:03.278Z,6.36
2023-02-12T06:13:49.593Z,6.37
2023-02-12T06:16:36.082Z,6.35
2023-02-12T06:19:22.213Z,6.38
2023-02-12T06:22:08.014Z,6.40
2023-02-12T06:24:55.108Z,6.39
2023-02-12T06:27:40.882Z,6.36
2023-02-12T06:30:26.831Z,6.35
2023-02-12T06:33:12.695Z,6.35
2023-02-12T06:35:58.552Z,6.34
2023-02-12T06:38:44.836Z,6.33
2023-02-12T06:41:31.792Z,6.32
2023-02-12T06:44:17.788Z,6.31
2023-02-12T06:47:03.713Z,6.29
2023-02-12T06:49:49.581Z,6.31
2023-02-12T06:52:35.283Z,6.30
2023-02-12T06:55:20.941Z,6.31
2023-02-12T06:58:08.026Z,6.30
2023-02-12T07:00:53.902Z,6.33
2023-02-12T07:03:40.823Z,6.33
2023-02-12T07:06:26.864Z,6.34
2023-02-12T07:09:12.580Z,6.33
2023-02-12T07:11:58.672Z,6.33
2023-02-12T07:14:46.141Z,6.34
2023-02-12T07:17:31.884Z,6.34
2023-02-12T07:20:17.783Z,6.36
2023-02-12T07:23:03.613Z,6.39
2023-02-12T07:25:55.408Z,6.41
2023-02-12T07:28:41.837Z,6.41
2023-02-12T07:31:29.332Z,6.43
2023-02-12T07:34:15.383Z,6.43
2023-02-12T07:37:01.142Z,6.45
2023-02-12T07:39:46.953Z,6.46
2023-02-12T07:42:32.692Z,6.44
2023-02-12T07:45:24.577Z,6.49
2023-02-12T07:48:12.737Z,6.50
2023-02-12T07:50:58.680Z,6.54
2023-02-12T07:53:44.536Z,6.53
2023-02-12T07:56:32.489Z,6.55
2023-02-12T07:59:19.348Z,6.61
2023-02-12T08:02:05.413Z,6.63
2023-02-12T08:04:56.974Z,6.68
2023-02-12T08:07:43.204Z,6.71
2023-02-12T08:10:32.052Z,6.74
2023-02-12T08:13:18.235Z,6.80
2023-02-12T08:16:04.469Z,6.78
2023-02-12T08:18:50.837Z,6.82
2023-02-12T08:21:37.942Z,6.85
2023-02-12T08:24:23.956Z,6.88
2023-02-12T08:27:10.176Z,6.87
2023-02-12T08:29:56.570Z,6.88
2023-02-12T08:32:42.271Z,6.95
2023-02-12T08:35:28.269Z,7.00
2023-02-12T08:38:15.634Z,7.01
2023-02-12T08:41:01.985Z,7.09
2023-02-12T08:43:49.172Z,7.13
2023-02-12T08:46:36.344Z,7.18
2023-02-12T08:49:23.268Z,7.19
2023-02-12T08:52:09.016Z,7.27
2023-02-12T08:54:56.102Z,7.30
2023-02-12T08:57:42.824Z,7.33
2023-02-12T09:00:28.895Z,7.39
2023-02-12T09:03:14.695Z,7.43
2023-02-12T09:06:02.871Z,7.46
2023-02-12T09:08:48.961Z,7.55
2023-02-12T09:11:35.976Z,7.60
2023-02-12T09:14:23.867Z,7.61
2023-02-12T09:17:10.159Z,7.68
2023-02-12T09:19:57.374Z,7.76
2023-02-12T09:22:43.186Z,7.77
2023-02-12T09:25:29.263Z,7.83
2023-02-12T09:28:16.471Z,7.86
2023-02-12T09:31:05.468Z,7.86
2023-02-12T09:33:55.032Z,7.93
2023-02-12T09:36:41.415Z,7.90
2023-02-12T09:39:30.386Z,7.95
2023-02-12T09:42:19.247Z,7.92
2023-02-12T09:45:08.784Z,7.96
2023-02-12T09:47:56.373Z,7.96
2023-02-12T09:50:44.596Z,8.03
2023-02-12T09:53:31.448Z,8.05
2023-02-12T09:56:19.301Z,8.11
2023-02-12T09:59:06.173Z,8.18
2023-02-12T10:01:53.206Z,8.20
2023-02-12T10:04:48.671Z,8.22
2023-02-12T10:07:45.693Z,8.28
2023-02-12T10:10:39.421Z,8.34
2023-02-12T10:13:28.480Z,8.33
2023-02-12T10:16:15.640Z,8.44
2023-02-12T10:19:06.798Z,8.48
2023-02-12T10:21:56.182Z,8.52
2023-02-12T10:24:49.198Z,8.62
2023-02-12T10:27:39.983Z,8.63
2023-02-12T10:30:26.415Z,8.68
2023-02-12T10:33:14.285Z,8.71
2023-02-12T10:36:03.057Z,8.80
2023-02-12T10:38:50.357Z,8.85
2023-02-12T10:41:36.649Z,8.89
2023-02-12T10:44:22.556Z,8.87
2023-02-12T10:47:11.069Z,8.87
2023-02-12T10:49:57.775Z,8.89
2023-02-12T10:52:46.365Z,8.89
2023-02-12T10:55:33.243Z,8.87
2023-02-12T10:58:20.108Z,8.94
2023-02-12T11:01:05.986Z,8.90
2023-02-12T11:03:51.904Z,8.98
2023-02-12T11:06:38.838Z,9.01
2023-02-12T11:09:29.393Z,9.06
2023-02-12T11:12:22.341Z,9.05
2023-02-12T11:15:11.801Z,9.09
2023-02-12T11:17:58.682Z,9.07
2023-02-12T11:20:50.165Z,9.15
2023-02-12T11:23:37.663Z,9.19
2023-02-12T11:26:26.718Z,9.24
2023-02-12T11:29:18.508Z,9.27
2023-02-12T11:32:05.579Z,9.31
2023-02-12T11:34:57.536Z,9.31
2023-02-12T11:37:43.995Z,9.34
2023-02-12T11:40:30.474Z,9.26
2023-02-12T11:43:18.030Z,9.28
2023-02-12T11:46:04.405Z,9.23
2023-02-12T11:48:50.678Z,9.28
2023-02-12T11:51:36.494Z,9.31
2023-02-12T11:54:23.147Z,9.20
2023-02-12T11:57:11.674Z,9.22
2023-02-12T11:59:58.948Z,9.19
2023-02-12T12:02:45.219Z,9.22
2023-02-12T12:05:32.809Z,9.30
2023-02-12T12:08:20.750Z,9.29
2023-02-12T12:11:09.384Z,9.28
2023-02-12T12:13:57.379Z,9.21
2023-02-12T12:17:06.057Z,9.22
2023-02-12T12:19:54.634Z,9.15
2023-02-12T12:22:42.035Z,9.02
2023-02-12T12:25:28.538Z,9.05
2023-02-12T12:28:20.332Z,8.96
2023-02-12T12:31:07.841Z,9.01
2023-02-12T12:33:56.790Z,8.98
2023-02-12T12:36:51.299Z,9.00
2023-02-12T12:39:38.021Z,8.99
2023-02-12T12:42:38.574Z,9.00
2023-02-12T12:45:37.364Z,8.97
2023-02-12T12:48:26.845Z,8.99
2023-02-12T12:51:18.435Z,8.99
2023-02-12T12:54:08.318Z,8.90
2023-02-12T12:56:56.789Z,8.89
2023-02-12T12:59:49.104Z,8.91
2023-02-12T13:02:53.374Z,8.93
2023-02-12T13:05:52.799Z,8.92
2023-02-12T13:08:53.373Z,8.90
2023-02-12T13:11:41.353Z,8.92
2023-02-12T13:14:30.198Z,8.92
2023-02-12T13:17:18.169Z,8.92
2023-02-12T13:20:06.905Z,8.96
2023-02-12T13:22:53.840Z,8.99
2023-02-12T13:25:41.469Z,9.00
2023-02-12T13:28:29.284Z,8.97
2023-02-12T13:34:21.986Z,8.99
2023-02-12T13:37:07.752Z,8.99
2023-02-12T13:39:53.715Z,9.01
2023-02-12T13:42:43.998Z,9.06
2023-02-12T13:45:37.079Z,9.01
2023-02-12T13:48:30.041Z,9.05
2023-02-12T13:51:18.477Z,9.07
2023-02-12T13:54:12.691Z,9.04
2023-02-12T13:56:58.734Z,9.08
2023-02-12T13:59:46.835Z,9.07
2023-02-12T14:02:51.943Z,9.08
2023-02-12T14:05:37.945Z,9.07
2023-02-12T14:08:29.070Z,9.10
2023-02-12T14:11:16.258Z,9.09
2023-02-12T14:14:03.073Z,9.12
2023-02-12T14:16:50.557Z,9.11
2023-02-12T14:19:55.644Z,9.08
2023-02-12T14:23:00.556Z,9.05
2023-02-12T14:25:46.893Z,9.08
2023-02-12T14:28:35.200Z,9.03
2023-02-12T14:31:31.412Z,8.98
2023-02-12T14:34:50.314Z,8.97
2023-02-12T14:37:40.792Z,8.97
2023-02-12T14:40:42.403Z,8.95
2023-02-12T14:43:30.227Z,8.85
2023-02-12T14:46:40.397Z,8.85
2023-02-12T14:49:26.948Z,8.79
2023-02-12T14:52:15.560Z,8.76
2023-02-12T14:55:03.664Z,8.72
2023-02-12T14:57:49.713Z,8.67
2023-02-12T15:00:37.310Z,8.66
2023-02-12T15:03:25.526Z,8.68
2023-02-12T15:06:13.027Z,8.59
2023-02-12T15:09:00.170Z,8.61
2023-02-12T15:11:48.351Z,8.61
2023-02-12T15:14:36.022Z,8.61
2023-02-12T15:17:22.618Z,8.60
2023-02-12T15:20:10.310Z,8.55
2023-02-12T15:22:56.324Z,8.46
2023-02-12T15:25:42.421Z,8.40
2023-02-12T15:28:33.364Z,8.38
2023-02-12T15:31:20.441Z,8.37
2023-02-12T15:34:06.740Z,8.31
2023-02-12T15:36:52.472Z,8.30
2023-02-12T15:39:40.130Z,8.27
2023-02-12T15:42:26.970Z,8.28
2023-02-12T15:45:21.968Z,8.23
2023-02-12T15:48:12.233Z,8.18
2023-02-12T15:50:59.339Z,8.21
2023-02-12T15:53:45.659Z,8.18
2023-02-12T15:56:33.810Z,8.15
2023-02-12T15:59:20.655Z,8.10
2023-02-12T16:02:17.965Z,8.12
2023-02-12T16:05:04.709Z,8.10
2023-02-12T16:07:50.953Z,8.07
2023-02-12T16:10:36.821Z,7.99
2023-02-12T16:13:25.746Z,8.02
2023-02-12T16:16:17.790Z,7.99
2023-02-12T16:19:06.431Z,8.02
2023-02-12T16:21:52.991Z,7.98
2023-02-12T16:24:39.357Z,7.97
2023-02-12T16:27:26.532Z,7.95
2023-02-12T16:30:24.065Z,7.92
2023-02-12T16:33:25.080Z,7.89
2023-02-12T16:36:14.199Z,7.86
2023-02-12T16:39:01.388Z,7.85
2023-02-12T16:41:52.750Z,7.82
2023-02-12T16:44:38.658Z,7.77
2023-02-12T16:47:25.045Z,7.78
2023-02-12T16:50:15.386Z,7.75
2023-02-12T16:53:03.264Z,7.76
2023-02-12T16:55:49.162Z,7.72
2023-02-12T16:58:35.120Z,7.70
2023-02-12T17:01:22.570Z,7.66
2023-02-12T17:04:09.858Z,7.65
2023-02-12T17:06:55.810Z,7.63
2023-02-12T17:09:42.885Z,7.63
2023-02-12T17:12:28.719Z,7.63
2023-02-12T17:15:17.389Z,7.58
2023-02-12T17:18:03.416Z,7.61
2023-02-12T17:20:51.113Z,7.59
2023-02-12T17:23:37.258Z,7.55
2023-02-12T17:26:25.300Z,7.51
2023-02-12T17:29:11.348Z,7.53
2023-02-12T17:31:57.760Z,7.47
2023-02-12T17:34:48.958Z,7.48
2023-02-12T17:37:35.408Z,7.44
2023-02-12T17:40:21.315Z,7.45
2023-02-12T17:43:08.625Z,7.42
2023-02-12T17:45:54.608Z,7.41
2023-02-12T17:48:40.935Z,7.41
2023-02-12T17:51:27.292Z,7.38
2023-02-12T17:54:15.875Z,7.35
2023-02-12T17:57:01.693Z,7.36
2023-02-12T17:59:48.815Z,7.34
2023-02-12T18:02:34.755Z,7.34
2023-02-12T18:05:20.844Z,7.31
2023-02-12T18:08:07.375Z,7.28
2023-02-12T18:10:53.419Z,7.27
2023-02-12T18:13:39.236Z,7.30
2023-02-12T18:16:27.150Z,7.29
2023-02-12T18:19:13.357Z,7.30
2023-02-12T18:21:59.077Z,7.25
2023-02-12T18:24:45.220Z,7.24
2023-02-12T18:27:31.295Z,7.20
2023-02-12T18:30:17.140Z,7.19
2023-02-12T18:33:04.289Z,7.16
2023-02-12T18:35:57.415Z,7.15
2023-02-12T18:38:43.700Z,7.17
2023-02-12T18:41:30.436Z,7.14
2023-02-12T18:44:16.539Z,7.17
2023-02-12T18:47:02.538Z,7.12
2023-02-12T18:49:49.764Z,7.11
2023-02-12T18:52:37.060Z,7.08
2023-02-12T18:55:22.917Z,7.08
2023-02-12T18:58:08.729Z,7.07
2023-02-12T19:00:54.598Z,7.10
2023-02-12T19:03:40.905Z,7.11
2023-02-12T19:06:28.602Z,7.09
2023-02-12T19:09:16.516Z,7.09
2023-02-12T19:12:02.637Z,7.08
2023-02-12T19:14:48.845Z,7.06
2023-02-12T19:17:36.192Z,7.05
2023-02-12T19:20:21.964Z,7.00
2023-02-12T19:23:09.265Z,7.02
2023-02-12T19:25:55.430Z,6.99
2023-02-12T19:28:41.273Z,6.98
2023-02-12T19:31:27.877Z,6.96
2023-02-12T19:34:16.805Z,6.95
2023-02-12T19:37:02.656Z,6.94
2023-02-12T19:39:49.722Z,6.93
2023-02-12T19:42:35.681Z,6.92
2023-02-12T19:45:21.473Z,6.91
2023-02-12T19:48:07.280Z,6.89
2023-02-12T19:50:52.930Z,6.88
2023-02-12T19:53:38.648Z,6.86
2023-02-12T19:56:25.830Z,6.84
2023-02-12T19:59:11.933Z,6.83
2023-02-12T20:01:57.801Z,6.83
2023-02-12T20:04:43.615Z,6.82
2023-02-12T20:07:29.376Z,6.83
2023-02-12T20:10:18.224Z,6.80
2023-02-12T20:13:05.622Z,6.77
2023-02-12T20:15:51.429Z,6.77
2023-02-12T20:18:37.277Z,6.77
2023-02-12T20:21:23.824Z,6.77
2023-02-12T20:24:09.877Z,6.73
2023-02-12T20:26:56.199Z,6.72
2023-02-12T20:29:43.674Z,6.72
2023-02-12T20:32:29.394Z,6.71
2023-02-12T20:35:15.733Z,6.69
2023-02-12T20:38:01.588Z,6.68
2023-02-12T20:40:47.302Z,6.66
2023-02-12T20:43:34.050Z,6.63
2023-02-12T20:46:21.882Z,6.61
2023-02-12T20:49:07.905Z,6.60
2023-02-12T20:51:53.845Z,6.63
2023-02-12T20:54:40.121Z,6.63
2023-02-12T20:57:25.798Z,6.62
2023-02-12T21:00:12.350Z,6.61
2023-02-12T21:03:03.638Z,6.59
2023-02-12T21:05:49.637Z,6.59
2023-02-12T21:08:36.196Z,6.56
2023-02-12T21:11:22.700Z,6.57
2023-02-12T21:14:21.292Z,6.57
2023-02-12T21:17:08.077Z,6.55
2023-02-12T21:19:55.067Z,6.56
2023-02-12T21:22:40.889Z,6.57
2023-02-12T21:25:26.780Z,6.58
2023-02-12T21:28:12.529Z,6.54
2023-02-12T21:31:12.772Z,6.52
2023-02-12T21:34:00.791Z,6.50
2023-02-12T21:36:48.525Z,6.50
2023-02-12T21:39:35.016Z,6.48
2023-02-12T21:42:21.468Z,6.47
2023-02-12T21:45:07.977Z,6.48
2023-02-12T21:47:54.550Z,6.50
2023-02-12T21:50:40.863Z,6.49
2023-02-12T21:53:27.885Z,6.50
2023-02-12T21:56:15.838Z,6.46
2023-02-12T21:59:01.806Z,6.44
2023-02-12T22:01:49.274Z,6.44
2023-02-12T22:04:35.704Z,6.44
2023-02-12T22:07:22.020Z,6.42
2023-02-12T22:10:11.432Z,6.41
2023-02-12T22:12:57.431Z,6.40
2023-02-12T22:15:44.590Z,6.40
2023-02-12T22:18:31.958Z,6.39
2023-02-12T22:21:23.840Z,6.39
2023-02-12T22:24:11.153Z,6.38
2023-02-12T22:26:58.466Z,6.38
2023-02-12T22:29:44.189Z,6.35
2023-02-12T22:32:30.148Z,6.35
2023-02-12T22:35:16.429Z,6.33
2023-02-12T22:38:02.833Z,6.30
2023-02-12T22:40:52.308Z,6.29
2023-02-12T22:43:39.892Z,6.29
2023-02-12T22:46:25.759Z,6.28
2023-02-12T22:49:11.459Z,6.27
2023-02-12T22:51:57.455Z,6.27
2023-02-12T22:54:43.699Z,6.28
2023-02-12T22:57:29.709Z,6.27
2023-02-12T23:00:17.618Z,6.26
2023-02-12T23:03:03.679Z,6.21
2023-02-12T23:05:49.488Z,6.20
2023-02-12T23:08:35.477Z,6.20
2023-02-12T23:11:21.750Z,6.21
2023-02-12T23:14:08.082Z,6.21
2023-02-12T23:16:55.377Z,6.20
2023-02-12T23:19:41.019Z,6.18
2023-02-12T23:22:26.915Z,6.20
2023-02-12T23:25:12.885Z,6.21
2023-02-12T23:27:58.696Z,6.19
2023-02-12T23:30:45.100Z,6.18
2023-02-12T23:33:32.538Z,6.16
2023-02-12T23:36:18.273Z,6.13
2023-02-12T23:39:05.666Z,6.14
2023-02-12T23:41:51.419Z,6.11
2023-02-12T23:44:38.672Z,6.11
2023-02-12T23:47:24.405Z,6.10
2023-02-12T23:50:11.695Z,6.10
2023-02-12T23:52:57.787Z,6.10
2023-02-12T23:55:43.672Z,6.07
2023-02-12T23:58:29.414Z,6.05
